Fultondale, AL (35068)

2:18 PM CDT on August 30, 2016 (GMT -0500)
Birmingham International | | Change Station

Elev 630 ft 33.57 °N, 86.74 °W | Updated 25 minutes ago

Partly Cloudy
Partly Cloudy
92 °F
Feels Like 93 °F
N
6
Wind Variable Wind from Variable

Today
High -- | Low -- °F
--% Chance of Precip.
Yesterday
High -- | Low -- °F
Precip. -- in
Pressure 30.02 in
Visibility 10.0 miles
Clouds Few 7000 ft
Heat Index 93 °F
Dew Point 63 °F
Humidity 38%
Rainfall 0.00 in
Snow Depth Not available.
6:20 AM 7:14 PM
Waning Crescent, 3% visible
METAR KBHM 301853Z VRB05KT 10SM FEW070 33/17 A3005 RMK AO2 SLP166 T03330172
Pressure 30.02 in
Visibility 10.0 miles
Clouds Few 7000 ft
Heat Index 93 °F
Dew Point 63 °F
Humidity 38%
Rainfall 0.00 in
Snow Depth Not available.
6:20 AM 7:14 PM
Waning Crescent, 3% visible
METAR KBHM 301853Z VRB05KT 10SM FEW070 33/17 A3005 RMK AO2 SLP166 T03330172

10-Day Weather Forecast

Almanac

Astronomy

Aug. 30, 2016 Rise Set
Actual Time
Civil Twilight
Nautical Twilight
Astronomical Twilight
Moon
Length of Visible Light
Length of Day
Tomorrow will be .
, % of the Moon is Illuminated

Today's Extremes

State Highs State Lows

Community

WunderPhotos

Upload Photos

1,935,882 photos uploaded!

WunderBlog® & News

Nearby

Air Quality

  Air Quality AQ Index Pollutant
Not available.

Snow Depth

Station Depth Elevation

Earthquake Activity

City Distance Mag. Time & Date
Minimum magnitude displayed is 2.5.

Coastal Water Temperatures

Place Temperature

Stations

Nearby Weather Stations

Station Location Temp. Windchill Dew Point Humidity Wind Precip. Elev Updated Type
                   

Watches & Warnings

There are currently no watches in effect.